Time;durP1;ratioP1;P1;durP2;ratioP2;P2;SDS_P1;SDS_P2;PMS_P1;PMS_P2;Temp;Humidity;BMP_temperature;BMP_pressure;BME280_temperature;BME280_humidity;BME280_pressure;Samples;Min_cycle;Max_cycle;Signal;HPM_P1;HPM_P2
2023/10/30 00:00:58;;;;;;;4.03;0.80;;;;;;;13.91;72.99;99489.75;5051963;28;20215;-82
2023/10/30 00:03:24;;;;;;;3.93;0.80;;;;;;;13.95;72.94;99491.31;5051544;28;20341;-79
2023/10/30 00:05:51;;;;;;;3.37;0.70;;;;;;;13.90;73.51;99482.81;5051534;28;20204;-82
2023/10/30 00:08:19;;;;;;;5.80;0.70;;;;;;;13.94;73.93;99478.28;5051808;28;20229;-80
2023/10/30 00:10:46;;;;;;;1.67;0.70;;;;;;;13.83;72.89;99499.75;5051160;28;20214;-81
2023/10/30 00:13:12;;;;;;;2.83;0.70;;;;;;;13.87;73.29;99498.69;5051567;28;20206;-82
2023/10/30 00:15:38;;;;;;;1.70;0.70;;;;;;;13.97;73.36;99499.94;5052361;28;20971;-82
2023/10/30 00:18:05;;;;;;;1.30;0.60;;;;;;;13.84;73.24;99514.59;5042924;28;20219;-82
2023/10/30 00:20:31;;;;;;;2.77;0.93;;;;;;;13.97;73.30;99512.22;5052197;28;20210;-82
2023/10/30 00:22:58;;;;;;;2.43;0.80;;;;;;;13.96;72.89;99518.41;5051829;28;20214;-82
2023/10/30 00:25:26;;;;;;;4.43;0.90;;;;;;;13.91;72.99;99523.84;5052089;28;20216;-82
2023/10/30 00:27:52;;;;;;;3.60;0.83;;;;;;;14.00;73.12;99522.59;5050579;28;20724;-82
2023/10/30 00:30:19;;;;;;;3.43;0.77;;;;;;;13.88;72.86;99524.03;5051981;28;20205;-82
2023/10/30 00:32:45;;;;;;;2.83;0.70;;;;;;;13.99;72.92;99518.25;5052208;28;20217;-81
2023/10/30 00:35:12;;;;;;;2.13;0.70;;;;;;;13.83;72.85;99534.72;5052340;28;20205;-82
2023/10/30 00:37:39;;;;;;;7.33;1.00;;;;;;;14.05;73.17;99533.69;5053389;28;20252;-81
2023/10/30 00:40:06;;;;;;;1.77;0.70;;;;;;;13.98;73.50;99524.44;5053030;28;20744;-81
2023/10/30 00:42:34;;;;;;;4.20;0.80;;;;;;;14.05;73.49;99525.81;5044504;28;20585;-83
2023/10/30 00:45:00;;;;;;;4.33;0.90;;;;;;;14.01;73.07;99526.91;5052367;28;20213;-83
2023/10/30 00:47:27;;;;;;;1.90;0.80;;;;;;;14.06;72.92;99549.38;5054453;28;20209;-83
2023/10/30 00:49:53;;;;;;;5.23;1.10;;;;;;;14.09;73.25;99548.38;5053890;28;20705;-80
2023/10/30 00:52:20;;;;;;;3.17;0.90;;;;;;;13.98;73.20;99558.53;5052800;28;20210;-79
2023/10/30 00:54:46;;;;;;;2.50;0.67;;;;;;;13.93;73.30;99561.38;5044897;28;20214;-79
2023/10/30 00:57:12;;;;;;;3.27;0.77;;;;;;;14.02;73.80;99549.59;5053093;28;20208;-82
2023/10/30 00:59:40;;;;;;;3.67;0.83;;;;;;;14.03;73.93;99538.16;5053303;28;20233;-80
2023/10/30 01:02:07;;;;;;;3.87;0.97;;;;;;;13.97;74.71;99534.06;5052693;28;20261;-81
2023/10/30 01:04:33;;;;;;;1.47;0.80;;;;;;;13.99;75.18;99515.63;5052817;28;20213;-80
2023/10/30 01:07:01;;;;;;;1.83;0.80;;;;;;;13.91;74.96;99513.38;5052769;28;20602;-82
2023/10/30 01:09:27;;;;;;;1.57;0.70;;;;;;;13.84;74.59;99525.09;5052460;28;20306;-82
2023/10/30 01:11:54;;;;;;;2.63;0.80;;;;;;;13.94;74.65;99528.13;5044101;28;20245;-81
2023/10/30 01:14:20;;;;;;;5.00;0.90;;;;;;;13.83;74.81;99528.63;5052698;28;20203;-81
2023/10/30 01:16:49;;;;;;;4.53;1.00;;;;;;;13.88;74.77;99530.09;5052902;28;20212;-81
2023/10/30 01:19:15;;;;;;;3.43;0.67;;;;;;;13.94;74.84;99533.38;5052140;28;20603;-81
2023/10/30 01:21:42;;;;;;;4.30;0.90;;;;;;;13.87;75.04;99514.44;5053141;28;20209;-81
2023/10/30 01:24:09;;;;;;;3.60;0.83;;;;;;;13.93;74.86;99522.00;5057096;28;20186;-79
2023/10/30 01:26:36;;;;;;;3.40;0.93;;;;;;;13.94;74.95;99517.63;5075747;28;20198;-79
2023/10/30 01:29:02;;;;;;;3.53;1.10;;;;;;;13.84;75.33;99532.97;5075074;28;20234;-79
2023/10/30 01:31:28;;;;;;;2.83;0.83;;;;;;;13.61;75.14;99529.63;5074315;28;20197;-80
2023/10/30 01:33:56;;;;;;;2.90;0.80;;;;;;;13.49;76.38;99498.72;5057809;28;20206;-82
2023/10/30 01:36:23;;;;;;;2.27;0.80;;;;;;;13.68;76.55;99481.22;5053134;28;20297;-82
2023/10/30 01:38:50;;;;;;;2.23;0.73;;;;;;;13.82;76.02;99480.56;5053614;28;20228;-82
2023/10/30 01:41:16;;;;;;;5.70;0.80;;;;;;;13.72;75.85;99486.34;5050644;28;20207;-81
2023/10/30 01:43:42;;;;;;;2.83;1.17;;;;;;;13.37;76.69;99479.16;5048358;28;20213;-81
2023/10/30 01:46:08;;;;;;;3.37;1.33;;;;;;;13.61;76.43;99464.06;5053125;28;20219;-81
2023/10/30 01:48:35;;;;;;;2.10;0.63;;;;;;;13.43;76.72;99467.56;5048082;28;20229;-79
2023/10/30 01:51:05;;;;;;;2.93;0.80;;;;;;;13.61;76.71;99452.72;5047404;28;20207;-80
2023/10/30 01:53:33;;;;;;;3.73;0.77;;;;;;;13.50;76.63;99464.56;5047836;28;20203;-81
2023/10/30 01:56:02;;;;;;;4.00;0.77;;;;;;;13.65;77.23;99457.75;5045157;28;20239;-81
2023/10/30 01:58:29;;;;;;;2.53;0.80;;;;;;;13.66;77.33;99440.25;5047080;28;20226;-81
2023/10/30 02:00:57;;;;;;;3.80;0.70;;;;;;;13.64;77.60;99442.09;5044655;28;20210;-82
2023/10/30 02:03:23;;;;;;;2.73;0.93;;;;;;;13.63;77.72;99438.63;5046443;28;20270;-81
2023/10/30 02:05:51;;;;;;;2.13;0.70;;;;;;;13.63;78.10;99427.28;5047395;28;20211;-82
2023/10/30 02:08:19;;;;;;;2.43;0.70;;;;;;;13.66;77.79;99411.41;5050186;28;20245;-82
2023/10/30 02:10:46;;;;;;;2.73;0.80;;;;;;;13.68;77.33;99420.06;5042717;28;20260;-79
2023/10/30 02:13:12;;;;;;;4.00;0.87;;;;;;;13.70;77.23;99433.94;5040481;28;20217;-81
2023/10/30 02:15:39;;;;;;;4.60;1.00;;;;;;;13.70;77.04;99437.41;5051162;28;20199;-82
2023/10/30 02:18:06;;;;;;;3.90;0.93;;;;;;;13.55;77.27;99426.81;5049590;28;20275;-79
2023/10/30 02:20:33;;;;;;;2.23;0.73;;;;;;;13.49;77.53;99420.91;5046952;28;20700;-81
2023/10/30 02:22:59;;;;;;;2.27;0.90;;;;;;;13.56;78.08;99418.88;5047303;28;20198;-82
2023/10/30 02:25:27;;;;;;;2.87;0.90;;;;;;;13.45;78.12;99406.25;5048904;28;20202;-81
2023/10/30 02:27:54;;;;;;;3.30;1.30;;;;;;;13.59;78.20;99392.47;5046387;28;20209;-81
2023/10/30 02:30:21;;;;;;;3.10;1.03;;;;;;;13.48;78.08;99400.88;5043941;28;20222;-80
2023/10/30 02:32:48;;;;;;;3.63;1.00;;;;;;;13.44;78.36;99391.47;5043776;28;20198;-82
2023/10/30 02:35:16;;;;;;;3.47;0.70;;;;;;;13.44;78.56;99383.59;5046541;28;20619;-81
2023/10/30 02:37:43;;;;;;;3.40;0.80;;;;;;;13.41;78.96;99377.66;5049620;28;20677;-81
2023/10/30 02:40:10;;;;;;;1.83;0.70;;;;;;;13.61;78.53;99374.91;5049435;28;20238;-82
2023/10/30 02:42:39;;;;;;;4.67;1.10;;;;;;;13.71;77.66;99388.41;5050570;28;20211;-82
2023/10/30 02:45:07;;;;;;;3.70;0.70;;;;;;;13.50;78.90;99385.09;5052699;28;20209;-79
2023/10/30 02:47:34;;;;;;;5.03;1.20;;;;;;;13.27;78.69;99373.03;5054656;28;20199;-82
2023/10/30 02:50:01;;;;;;;1.77;0.80;;;;;;;13.33;79.45;99359.66;5056004;28;20232;-81
2023/10/30 02:52:29;;;;;;;5.90;1.00;;;;;;;13.26;79.59;99348.59;5056183;28;20201;-81
2023/10/30 02:54:56;;;;;;;6.80;0.90;;;;;;;13.35;79.80;99339.47;5056539;28;20272;-81
2023/10/30 02:57:22;;;;;;;3.23;0.97;;;;;;;13.34;79.73;99337.78;5056393;28;20408;-82
2023/10/30 02:59:50;;;;;;;1.93;0.60;;;;;;;13.37;79.48;99347.25;5055339;28;20227;-79
2023/10/30 03:02:16;;;;;;;2.63;0.80;;;;;;;13.28;79.66;99341.50;5055793;28;20210;-81
2023/10/30 03:04:43;;;;;;;4.67;1.20;;;;;;;13.31;79.93;99336.13;5055747;28;20209;-81
2023/10/30 03:07:09;;;;;;;3.57;0.90;;;;;;;13.39;78.64;99342.78;5056023;28;20218;-79
2023/10/30 03:09:37;;;;;;;2.93;1.20;;;;;;;13.46;78.96;99352.06;5073762;28;20240;-81
2023/10/30 03:12:04;;;;;;;3.37;1.00;;;;;;;13.56;78.43;99357.69;5047312;28;20203;-79
2023/10/30 03:14:30;;;;;;;1.43;0.70;;;;;;;13.38;80.02;99356.81;5054154;28;20212;-81
2023/10/30 03:16:58;;;;;;;1.67;0.77;;;;;;;13.44;78.80;99359.16;5054392;28;20203;-83
2023/10/30 03:19:25;;;;;;;2.73;1.07;;;;;;;13.34;79.97;99339.53;5054632;28;20293;-82
2023/10/30 03:21:51;;;;;;;5.33;1.40;;;;;;;13.34;79.47;99347.41;5054660;28;20205;-82
2023/10/30 03:24:17;;;;;;;2.47;0.87;;;;;;;13.27;79.80;99338.97;5054658;28;20240;-81
2023/10/30 03:26:44;;;;;;;1.70;0.90;;;;;;;13.30;79.32;99333.63;5054551;28;20210;-82
2023/10/30 03:29:10;;;;;;;1.33;0.70;;;;;;;13.21;79.58;99336.63;5053975;28;20226;-81
2023/10/30 03:31:37;;;;;;;3.17;0.93;;;;;;;12.98;80.43;99320.22;5054284;28;20215;-81
2023/10/30 03:34:04;;;;;;;5.97;1.13;;;;;;;13.24;79.62;99333.84;5054404;28;20209;-82
2023/10/30 03:36:31;;;;;;;3.27;0.80;;;;;;;13.15;80.28;99337.75;5054304;28;20202;-81
2023/10/30 03:38:57;;;;;;;2.17;0.77;;;;;;;13.23;80.25;99329.53;5054635;28;20230;-81
2023/10/30 03:41:24;;;;;;;6.37;0.90;;;;;;;13.20;80.47;99319.19;5042472;28;20198;-82
2023/10/30 03:43:50;;;;;;;2.60;0.90;;;;;;;13.17;80.19;99333.31;5049208;28;20211;-81
2023/10/30 03:46:17;;;;;;;5.30;1.10;;;;;;;13.22;80.49;99326.09;5054798;28;20215;-82
2023/10/30 03:48:43;;;;;;;4.10;1.37;;;;;;;13.20;79.82;99334.91;5055530;28;20217;-82
2023/10/30 03:51:11;;;;;;;2.33;0.90;;;;;;;13.16;79.43;99359.56;5054645;28;20606;-82
2023/10/30 03:53:37;;;;;;;6.83;1.53;;;;;;;13.11;80.69;99344.06;5054711;28;20206;-82
2023/10/30 03:56:05;;;;;;;2.90;0.90;;;;;;;13.26;79.96;99330.25;5054652;28;20215;-82
2023/10/30 03:58:31;;;;;;;2.80;1.17;;;;;;;13.34;80.05;99340.41;5054374;28;20226;-83
2023/10/30 04:01:05;;;;;;;4.90;1.70;;;;;;;13.16;79.53;99354.31;5054939;28;20199;-81
2023/10/30 04:03:31;;;;;;;4.77;1.10;;;;;;;13.24;79.93;99358.31;5054742;28;20208;-82
2023/10/30 04:06:01;;;;;;;4.83;1.30;;;;;;;13.29;79.66;99355.47;5054663;28;20709;-82
2023/10/30 04:08:28;;;;;;;3.77;0.90;;;;;;;13.32;80.22;99355.34;5055063;28;20237;-82
2023/10/30 04:10:55;;;;;;;4.33;1.03;;;;;;;13.31;79.58;99366.75;5053573;28;20223;-82
2023/10/30 04:13:22;;;;;;;3.40;1.30;;;;;;;13.36;79.71;99351.66;5046690;28;20205;-82
2023/10/30 04:15:48;;;;;;;7.10;1.30;;;;;;;13.46;79.84;99350.28;5054971;28;20203;-83
2023/10/30 04:18:14;;;;;;;3.00;0.97;;;;;;;13.62;78.73;99368.75;5054593;28;20225;-83
2023/10/30 04:20:41;;;;;;;7.80;1.30;;;;;;;13.63;79.03;99364.34;5054846;28;20798;-83
2023/10/30 04:23:07;;;;;;;2.07;0.50;;;;;;;13.58;78.96;99382.09;5053949;28;20233;-82
2023/10/30 04:25:35;;;;;;;3.03;1.20;;;;;;;13.57;78.56;99401.34;5055350;28;20209;-82
2023/10/30 04:28:01;;;;;;;3.37;1.03;;;;;;;13.43;78.78;99396.78;5053513;28;20227;-82
2023/10/30 04:30:29;;;;;;;2.83;1.00;;;;;;;13.45;79.13;99397.53;5055031;28;20258;-82
2023/10/30 04:32:55;;;;;;;4.83;1.00;;;;;;;13.61;78.91;99389.78;5054511;28;20197;-83
2023/10/30 04:35:21;;;;;;;2.73;0.77;;;;;;;13.57;78.81;99393.50;5054134;28;20600;-83
2023/10/30 04:37:48;;;;;;;3.37;1.20;;;;;;;13.49;79.10;99388.59;5054224;28;20206;-82
2023/10/30 04:40:14;;;;;;;3.67;0.80;;;;;;;13.59;79.08;99376.75;5054729;28;20229;-82
2023/10/30 04:42:42;;;;;;;3.17;1.23;;;;;;;13.34;79.81;99373.59;5045335;28;20677;-81
2023/10/30 04:45:09;;;;;;;5.63;1.30;;;;;;;12.61;83.02;99339.41;5054335;28;20209;-82
2023/10/30 04:47:37;;;;;;;2.97;1.10;;;;;;;12.88;82.53;99288.38;5054670;28;20213;-83
2023/10/30 04:50:03;;;;;;;4.00;1.10;;;;;;;13.08;82.06;99294.44;5054318;28;20606;-82
2023/10/30 04:52:30;;;;;;;4.70;1.03;;;;;;;13.17;81.76;99285.28;5053778;28;20209;-83
2023/10/30 04:54:56;;;;;;;3.93;1.17;;;;;;;13.11;81.50;99291.66;5054350;28;20210;-83
2023/10/30 04:57:23;;;;;;;4.87;1.10;;;;;;;12.76;82.48;99298.56;5053773;28;21988;-83
2023/10/30 04:59:50;;;;;;;4.53;1.03;;;;;;;13.07;82.38;99284.88;5053636;28;20214;-81
2023/10/30 05:02:17;;;;;;;2.80;0.90;;;;;;;13.09;82.37;99283.88;5054774;28;20234;-83
2023/10/30 05:04:43;;;;;;;2.87;1.50;;;;;;;13.04;82.41;99271.91;5076367;28;20208;-80
2023/10/30 05:07:10;;;;;;;2.50;1.00;;;;;;;13.10;82.53;99256.78;5074313;28;20206;-77
2023/10/30 05:09:37;;;;;;;6.00;1.63;;;;;;;13.03;82.25;99268.47;5074576;28;20799;-80
2023/10/30 05:12:04;;;;;;;3.20;1.10;;;;;;;13.12;82.54;99272.41;5065956;28;20198;-78
2023/10/30 05:14:31;;;;;;;7.00;1.20;;;;;;;13.07;81.95;99267.38;5058378;28;20202;-80
2023/10/30 05:16:58;;;;;;;5.00;1.27;;;;;;;13.03;82.10;99262.38;5057194;28;20205;-83
2023/10/30 05:19:25;;;;;;;3.07;0.90;;;;;;;13.10;82.49;99263.75;5054409;28;20245;-83
2023/10/30 05:21:52;;;;;;;7.07;1.77;;;;;;;13.09;81.96;99257.69;5054527;28;20284;-80
2023/10/30 05:24:18;;;;;;;3.60;1.00;;;;;;;13.14;81.48;99267.97;5054667;28;20213;-82
2023/10/30 05:26:45;;;;;;;5.73;1.00;;;;;;;13.18;81.76;99266.00;5054746;28;20202;-82
2023/10/30 05:29:11;;;;;;;3.33;1.17;;;;;;;13.20;81.87;99269.41;5053560;28;20223;-81
2023/10/30 05:31:38;;;;;;;2.53;0.80;;;;;;;13.25;81.05;99276.13;5054549;28;20302;-82
2023/10/30 05:34:06;;;;;;;2.40;1.00;;;;;;;13.18;81.50;99271.25;5054394;28;20198;-82
2023/10/30 05:36:32;;;;;;;2.23;1.33;;;;;;;13.15;81.49;99266.19;5046032;28;20213;-82
2023/10/30 05:38:58;;;;;;;4.47;1.20;;;;;;;13.11;81.45;99284.66;5055819;28;20229;-82
2023/10/30 05:41:25;;;;;;;5.13;1.23;;;;;;;13.22;81.53;99280.66;5047275;28;20682;-81
2023/10/30 05:43:52;;;;;;;4.10;1.10;;;;;;;13.27;81.42;99286.53;5051912;28;20673;-81
2023/10/30 05:46:19;;;;;;;4.13;1.17;;;;;;;13.31;80.77;99282.88;5058218;28;20209;-82
2023/10/30 05:48:45;;;;;;;6.97;1.53;;;;;;;13.25;81.37;99285.78;5057683;28;20222;-83
2023/10/30 05:51:13;;;;;;;3.77;0.93;;;;;;;13.27;81.47;99279.53;5057652;28;20323;-80
2023/10/30 05:53:39;;;;;;;4.97;1.00;;;;;;;13.29;81.91;99277.69;5057818;28;20561;-82
2023/10/30 05:56:06;;;;;;;2.20;1.00;;;;;;;13.20;81.78;99277.28;5058203;28;20672;-79
2023/10/30 05:58:33;;;;;;;4.53;1.20;;;;;;;13.22;81.90;99265.81;5056386;28;20217;-82
2023/10/30 06:00:59;;;;;;;31.73;1.90;;;;;;;13.10;81.69;99277.72;5057939;28;20578;-82
2023/10/30 06:03:26;;;;;;;3.30;1.03;;;;;;;13.14;81.58;99274.94;5056762;28;20211;-80
2023/10/30 06:05:52;;;;;;;5.93;1.50;;;;;;;13.15;81.14;99290.59;5057099;28;20218;-82
2023/10/30 06:08:23;;;;;;;7.30;1.57;;;;;;;13.08;81.67;99297.91;5057129;28;20249;-82
2023/10/30 06:10:50;;;;;;;3.10;0.83;;;;;;;13.23;81.49;99300.72;5057133;28;20222;-82
2023/10/30 06:13:16;;;;;;;5.50;1.10;;;;;;;13.23;81.48;99311.19;5047548;28;20215;-81
2023/10/30 06:15:43;;;;;;;4.47;1.00;;;;;;;13.24;81.81;99323.38;5056339;28;20591;-81
2023/10/30 06:18:10;;;;;;;2.70;1.10;;;;;;;13.25;81.83;99314.59;5056257;28;20303;-80
2023/10/30 06:20:37;;;;;;;4.73;1.40;;;;;;;13.25;81.74;99312.81;5056645;28;20201;-82
2023/10/30 06:23:03;;;;;;;1.83;0.97;;;;;;;13.19;82.10;99328.84;5055909;28;20691;-81
2023/10/30 06:25:31;;;;;;;4.07;1.63;;;;;;;13.24;81.81;99320.75;5056348;28;20205;-79
2023/10/30 06:27:57;;;;;;;6.27;1.37;;;;;;;13.27;82.01;99318.00;5056652;28;20207;-82
2023/10/30 06:30:24;;;;;;;3.27;1.10;;;;;;;13.19;81.80;99310.50;5057433;28;20233;-82
2023/10/30 06:32:50;;;;;;;3.10;1.00;;;;;;;13.22;81.78;99317.34;5057084;28;20207;-81
2023/10/30 06:35:17;;;;;;;5.10;1.10;;;;;;;13.19;81.77;99322.75;5059380;28;20213;-80
2023/10/30 06:37:43;;;;;;;4.90;1.37;;;;;;;13.26;81.80;99322.38;5072627;28;20657;-82
2023/10/30 06:40:11;;;;;;;5.17;1.20;;;;;;;13.17;82.09;99332.47;5056731;28;20228;-82
2023/10/30 06:42:40;;;;;;;3.90;1.30;;;;;;;13.29;82.01;99324.88;5048150;28;20571;-81
2023/10/30 06:45:07;;;;;;;2.77;1.17;;;;;;;13.26;81.75;99330.25;5058074;28;20197;-80
2023/10/30 06:47:34;;;;;;;4.20;0.90;;;;;;;13.33;81.73;99333.44;5072232;28;20217;-80
2023/10/30 06:50:00;;;;;;;3.33;1.20;;;;;;;13.31;81.77;99327.44;5078105;28;20220;-82
2023/10/30 06:52:27;;;;;;;3.13;1.10;;;;;;;13.34;81.86;99340.41;5054646;28;20211;-81
2023/10/30 06:54:53;;;;;;;3.57;1.20;;;;;;;13.35;81.91;99347.31;5055009;28;20205;-82
2023/10/30 06:57:19;;;;;;;6.00;1.50;;;;;;;13.38;81.84;99338.47;5055033;28;20222;-81
2023/10/30 06:59:49;;;;;;;3.57;1.73;;;;;;;13.34;81.87;99339.53;5056760;28;20229;-83
2023/10/30 07:02:15;;;;;;;4.53;1.20;;;;;;;13.29;82.09;99321.38;5057323;28;20211;-83
2023/10/30 07:04:41;;;;;;;3.87;1.20;;;;;;;13.35;82.17;99326.38;5057113;28;20203;-81
2023/10/30 07:07:08;;;;;;;6.77;1.20;;;;;;;13.36;82.04;99341.19;5056695;28;20210;-82
2023/10/30 07:09:34;;;;;;;3.47;0.90;;;;;;;13.37;82.28;99339.41;5055962;28;20225;-80
2023/10/30 07:12:01;;;;;;;4.93;1.00;;;;;;;13.45;81.96;99343.34;5055578;28;20225;-81
2023/10/30 07:14:28;;;;;;;2.83;1.00;;;;;;;13.36;81.58;99366.50;5055263;28;20206;-82
2023/10/30 07:16:56;;;;;;;3.07;0.87;;;;;;;13.40;81.56;99363.69;5049298;28;20203;-83
2023/10/30 07:19:23;;;;;;;5.17;1.10;;;;;;;13.44;82.11;99362.63;5052925;28;20239;-82
2023/10/30 07:21:49;;;;;;;3.37;1.30;;;;;;;13.44;82.55;99362.63;5055824;28;20223;-81
2023/10/30 07:24:16;;;;;;;3.20;1.00;;;;;;;13.30;82.56;99360.66;5055579;28;20677;-82
2023/10/30 07:26:43;;;;;;;2.73;1.17;;;;;;;13.44;82.42;99349.53;5056897;28;20206;-82
2023/10/30 07:29:09;;;;;;;3.27;1.23;;;;;;;13.41;82.84;99356.69;5055304;28;20249;-82
2023/10/30 07:31:36;;;;;;;3.23;1.43;;;;;;;13.39;82.91;99348.03;5055556;28;20227;-79
2023/10/30 07:34:04;;;;;;;3.43;1.00;;;;;;;13.42;83.12;99333.00;5055687;28;20202;-79
2023/10/30 07:36:30;;;;;;;3.77;1.40;;;;;;;13.39;82.83;99346.25;5056726;28;20214;-80
2023/10/30 07:38:56;;;;;;;4.37;1.73;;;;;;;13.43;83.15;99336.47;5056152;28;20233;-79
2023/10/30 07:41:23;;;;;;;3.03;1.10;;;;;;;13.34;83.15;99342.16;5055853;28;20210;-81
2023/10/30 07:43:49;;;;;;;3.60;1.70;;;;;;;13.34;83.28;99326.44;5054013;28;20212;-81
2023/10/30 07:46:16;;;;;;;3.13;1.23;;;;;;;13.40;83.55;99319.13;5054225;28;20231;-82
2023/10/30 07:48:42;;;;;;;3.93;1.10;;;;;;;13.74;81.83;99338.44;5046131;28;20229;-81
2023/10/30 07:51:10;;;;;;;3.33;1.50;;;;;;;13.85;81.72;99362.34;5054780;28;20226;-81
2023/10/30 07:53:36;;;;;;;4.20;1.30;;;;;;;13.67;82.06;99365.88;5055575;28;20215;-79
2023/10/30 07:56:03;;;;;;;2.37;1.20;;;;;;;13.58;82.37;99367.19;5056486;28;20612;-81
2023/10/30 07:58:29;;;;;;;4.00;1.40;;;;;;;13.60;83.13;99348.78;5055606;28;20237;-81
2023/10/30 08:00:56;;;;;;;3.30;1.27;;;;;;;13.64;82.94;99335.44;5055925;28;20200;-79
2023/10/30 08:03:23;;;;;;;3.23;1.20;;;;;;;13.60;82.73;99339.13;5053688;28;20244;-79
2023/10/30 08:05:49;;;;;;;6.03;1.60;;;;;;;13.63;82.79;99331.09;5056523;28;20208;-81
2023/10/30 08:08:17;;;;;;;2.53;1.20;;;;;;;13.66;83.58;99317.84;5055171;28;20251;-80
2023/10/30 08:10:45;;;;;;;4.37;1.30;;;;;;;13.65;83.02;99325.78;5055060;28;20256;-79
2023/10/30 08:13:12;;;;;;;4.47;1.10;;;;;;;13.56;82.49;99332.34;5054391;28;20211;-81
2023/10/30 08:15:38;;;;;;;2.90;1.17;;;;;;;13.64;82.25;99338.06;5048274;28;20212;-79
2023/10/30 08:18:05;;;;;;;5.40;1.27;;;;;;;13.96;81.65;99353.13;5046576;28;20209;-79
2023/10/30 08:20:31;;;;;;;2.60;1.20;;;;;;;14.01;80.61;99382.59;5054917;28;20210;-80
2023/10/30 08:22:57;;;;;;;3.77;1.87;;;;;;;14.00;80.90;99387.00;5054803;28;20582;-81
2023/10/30 08:25:27;;;;;;;3.13;1.50;;;;;;;14.13;80.67;99389.84;5054055;28;20203;-82
2023/10/30 08:27:54;;;;;;;2.33;1.50;;;;;;;13.93;81.15;99392.63;5054125;28;20218;-81
2023/10/30 08:30:20;;;;;;;2.73;0.93;;;;;;;14.04;81.35;99395.56;5054761;28;20210;-81
2023/10/30 08:32:48;;;;;;;2.93;1.67;;;;;;;13.94;81.00;99410.91;5054716;28;20218;-81
2023/10/30 08:35:14;;;;;;;3.57;1.20;;;;;;;13.95;81.20;99406.50;5054871;28;20656;-83
2023/10/30 08:37:41;;;;;;;2.03;1.10;;;;;;;13.80;81.96;99393.22;5055811;28;20203;-81
2023/10/30 08:40:09;;;;;;;6.30;1.50;;;;;;;13.79;82.27;99382.81;5057378;28;20219;-81
2023/10/30 08:42:37;;;;;;;4.20;1.60;;;;;;;13.78;82.44;99374.09;5055980;28;20204;-82
2023/10/30 08:45:05;;;;;;;4.60;1.27;;;;;;;13.72;82.85;99370.94;5056974;28;20210;-82
2023/10/30 08:47:31;;;;;;;6.00;1.57;;;;;;;13.81;81.98;99375.69;5052223;28;20234;-82
2023/10/30 08:49:57;;;;;;;4.10;1.07;;;;;;;13.81;81.83;99389.66;5070496;28;20539;-81
2023/10/30 08:52:24;;;;;;;5.93;1.27;;;;;;;13.75;81.87;99399.63;5060824;28;20230;-80
2023/10/30 08:54:50;;;;;;;2.13;0.90;;;;;;;13.77;83.22;99375.00;5059392;28;20213;-82
2023/10/30 08:57:19;;;;;;;2.83;1.13;;;;;;;13.95;82.45;99380.28;5057778;28;20211;-83
2023/10/30 08:59:46;;;;;;;2.80;1.40;;;;;;;13.67;83.03;99379.84;5057674;28;20697;-82
2023/10/30 09:02:13;;;;;;;3.80;1.67;;;;;;;13.37;85.02;99350.72;5056629;28;20295;-82
2023/10/30 09:04:40;;;;;;;3.57;1.20;;;;;;;12.97;87.52;99300.19;5057179;28;20226;-81
2023/10/30 09:07:06;;;;;;;4.17;1.50;;;;;;;12.89;88.60;99263.88;5058012;28;20237;-83
2023/10/30 09:09:33;;;;;;;2.43;1.33;;;;;;;13.45;86.54;99255.97;5058363;28;20226;-80
2023/10/30 09:12:00;;;;;;;4.17;1.27;;;;;;;13.65;85.05;99289.91;5057990;28;20227;-80
2023/10/30 09:14:26;;;;;;;3.60;1.00;;;;;;;13.72;84.11;99314.06;5051205;28;20212;-82
2023/10/30 09:16:54;;;;;;;3.57;1.30;;;;;;;13.93;83.87;99327.88;5056387;28;20203;-82
2023/10/30 09:19:21;;;;;;;3.57;1.37;;;;;;;13.93;83.68;99350.63;5059269;28;20228;-82
2023/10/30 09:21:49;;;;;;;3.73;1.50;;;;;;;14.00;83.67;99347.63;5065834;28;20206;-83
2023/10/30 09:24:15;;;;;;;3.97;1.27;;;;;;;14.22;82.32;99368.38;5062015;28;20211;-83
2023/10/30 09:26:42;;;;;;;2.67;1.40;;;;;;;14.35;81.90;99384.38;5062714;28;20217;-82
2023/10/30 09:29:08;;;;;;;3.33;1.30;;;;;;;14.20;83.49;99382.50;5059568;28;20224;-81
2023/10/30 09:31:35;;;;;;;4.30;1.20;;;;;;;14.21;83.47;99371.06;5058431;28;20258;-82
2023/10/30 09:34:03;;;;;;;4.50;1.33;;;;;;;14.38;82.91;99381.56;5058823;28;20203;-82
2023/10/30 09:36:30;;;;;;;4.63;1.30;;;;;;;14.18;83.07;99395.72;5058407;28;20629;-79
2023/10/30 09:38:56;;;;;;;4.70;1.90;;;;;;;14.27;82.72;99387.38;5059715;28;20225;-82
2023/10/30 09:41:25;;;;;;;3.87;1.20;;;;;;;14.26;82.40;99390.06;5058651;28;20681;-82
2023/10/30 09:43:52;;;;;;;2.37;1.03;;;;;;;14.32;82.63;99399.41;5058073;28;20203;-82
2023/10/30 09:46:23;;;;;;;3.40;1.17;;;;;;;14.17;82.51;99406.28;5058718;28;20208;-80
2023/10/30 09:48:51;;;;;;;3.27;1.30;;;;;;;14.50;82.26;99393.22;5050916;28;20604;-82
2023/10/30 09:51:21;;;;;;;3.57;1.20;;;;;;;14.35;83.41;99394.88;5058745;28;20635;-82
2023/10/30 09:53:49;;;;;;;2.43;1.23;;;;;;;14.58;81.22;99404.19;5057775;28;20207;-82
2023/10/30 09:56:17;;;;;;;6.57;1.27;;;;;;;14.54;80.48;99436.75;5058889;28;20242;-81
2023/10/30 09:58:43;;;;;;;3.17;1.03;;;;;;;14.73;80.36;99443.72;5057412;28;20613;-82
2023/10/30 10:01:10;;;;;;;2.37;1.00;;;;;;;14.77;80.10;99451.38;5058788;28;20206;-80
2023/10/30 10:03:36;;;;;;;4.13;1.33;;;;;;;14.73;80.32;99457.72;5058659;28;20670;-81
2023/10/30 10:06:03;;;;;;;3.57;1.10;;;;;;;14.79;79.34;99480.19;5057969;28;20207;-82
2023/10/30 10:08:31;;;;;;;3.00;1.03;;;;;;;14.87;79.01;99492.00;5058443;28;20234;-81
2023/10/30 10:10:59;;;;;;;4.07;1.10;;;;;;;14.95;79.27;99501.28;5058283;28;20225;-83
2023/10/30 10:13:28;;;;;;;1.10;0.90;;;;;;;14.66;78.73;99509.69;5056939;28;20235;-82
2023/10/30 10:15:55;;;;;;;3.07;1.03;;;;;;;14.77;79.70;99498.66;5057321;28;20204;-82
2023/10/30 10:18:26;;;;;;;6.10;1.53;;;;;;;14.86;79.56;99495.53;5049527;28;20234;-81
2023/10/30 10:20:58;;;;;;;1.97;1.03;;;;;;;14.93;78.44;99497.88;5049388;28;20522;-82
2023/10/30 10:23:25;;;;;;;2.23;1.07;;;;;;;14.88;77.86;99527.00;5058226;28;20238;-82
2023/10/30 10:25:56;;;;;;;4.23;0.90;;;;;;;14.48;78.09;99545.59;5057446;28;20206;-81
2023/10/30 10:28:24;;;;;;;2.00;0.90;;;;;;;14.54;78.82;99533.09;5056977;28;20235;-83
2023/10/30 10:30:51;;;;;;;3.43;1.13;;;;;;;14.49;79.00;99522.81;5057502;28;20210;-83
2023/10/30 10:33:19;;;;;;;2.43;1.40;;;;;;;14.54;78.12;99519.97;5057546;28;20238;-80
2023/10/30 10:35:47;;;;;;;3.47;1.07;;;;;;;14.94;78.11;99524.06;5057740;28;20210;-82
2023/10/30 10:38:16;;;;;;;2.00;0.80;;;;;;;14.69;78.12;99540.25;5057561;28;20226;-80
2023/10/30 10:40:45;;;;;;;2.00;0.90;;;;;;;14.68;78.57;99538.53;5057705;28;20690;-83
2023/10/30 10:43:13;;;;;;;2.47;1.03;;;;;;;14.72;78.81;99521.69;5056993;28;20207;-80
2023/10/30 10:45:41;;;;;;;4.87;1.10;;;;;;;14.80;79.31;99509.00;5056684;28;20206;-80
2023/10/30 10:48:09;;;;;;;2.83;0.90;;;;;;;14.92;79.10;99489.13;5049401;28;20238;-82
2023/10/30 10:50:36;;;;;;;5.53;1.00;;;;;;;14.87;78.34;99499.03;5055910;28;20257;-82
2023/10/30 10:53:04;;;;;;;1.57;0.90;;;;;;;15.01;78.56;99504.41;5056984;28;20219;-83
2023/10/30 10:55:33;;;;;;;2.80;1.00;;;;;;;15.28;77.60;99510.00;5057865;28;20200;-81
2023/10/30 10:58:07;;;;;;;1.50;0.80;;;;;;;15.43;77.36;99521.47;5056275;28;20577;-83
2023/10/30 11:00:41;;;;;;;2.03;0.90;;;;;;;15.57;76.85;99541.75;5057056;28;20226;-82
2023/10/30 11:03:08;;;;;;;2.13;0.80;;;;;;;15.51;76.41;99557.88;5056838;28;20207;-82
2023/10/30 11:05:36;;;;;;;2.67;1.20;;;;;;;15.60;75.23;99590.72;5055740;28;20225;-83
2023/10/30 11:08:13;;;;;;;1.30;0.70;;;;;;;15.60;74.84;99610.00;5048693;28;20245;-83
2023/10/30 11:10:44;;;;;;;3.33;1.10;;;;;;;15.59;76.16;99591.66;5056196;28;20223;-82
2023/10/30 11:13:26;;;;;;;7.83;1.03;;;;;;;15.61;75.31;99590.66;5056757;28;20232;-83
2023/10/30 11:16:00;;;;;;;1.67;0.77;;;;;;;15.59;75.45;99592.50;5056707;28;20214;-83
2023/10/30 11:18:28;;;;;;;2.10;0.83;;;;;;;15.63;75.09;99595.84;5043052;28;20224;-82
2023/10/30 11:21:07;;;;;;;2.13;0.70;;;;;;;15.56;74.55;99599.72;5055016;28;20208;-83
2023/10/30 11:23:48;;;;;;;1.07;0.63;;;;;;;15.72;74.29;99612.91;5053758;28;20288;-82
2023/10/30 11:26:39;;;;;;;1.73;0.70;;;;;;;15.66;74.35;99619.38;5054754;28;20270;-82
2023/10/30 11:29:09;;;;;;;1.23;0.60;;;;;;;15.75;74.37;99631.19;5054534;28;20219;-82
2023/10/30 11:34:32;;;;;;;1.83;0.70;;;;;;;15.58;75.06;99629.41;5097990;27;1206499;-81
2023/10/30 11:37:00;;;;;;;1.13;0.70;;;;;;;14.88;75.99;99611.09;5113670;28;20255;-81